Time;durP1;ratioP1;P1;durP2;ratioP2;P2;SDS_P1;SDS_P2;PMS_P1;PMS_P2;Temp;Humidity;BMP_temperature;BMP_pressure;BME280_temperature;BME280_humidity;BME280_pressure;Samples;Min_cycle;Max_cycle;Signal;HPM_P1;HPM_P2
2022/02/11 00:07:37;;;;;;;0.20;0.00;;;7.60;99.90;;;;;;25675021;23;20204;-64
2022/02/11 00:17:40;;;;;;;0.20;0.10;;;8.10;99.90;;;;;;25700328;23;20200;-64
2022/02/11 00:38:24;;;;;;;0.20;0.00;;;8.10;99.90;;;;;;25673928;23;20211;-65
2022/02/11 01:09:14;;;;;;;0.20;0.00;;;7.10;99.90;;;;;;25700516;23;20180;-64
2022/02/11 01:19:25;;;;;;;0.20;0.00;;;7.40;99.90;;;;;;25698453;23;20512;-64
2022/02/11 01:29:56;;;;;;;0.20;0.10;;;7.30;99.90;;;;;;25700719;23;20154;-64
2022/02/11 01:50:38;;;;;;;0.20;0.10;;;6.60;99.90;;;;;;25707083;23;20440;-67
2022/02/11 02:01:00;;;;;;;0.20;0.00;;;6.60;99.90;;;;;;25680118;23;20197;-68
2022/02/11 02:11:39;;;;;;;0.50;0.50;;;6.80;99.90;;;;;;25706201;23;20197;-67
2022/02/11 02:32:46;;;;;;;0.20;0.00;;;6.80;99.90;;;;;;25650158;23;20196;-66
2022/02/11 03:34:58;;;;;;;0.20;0.00;;;7.00;99.90;;;;;;25711874;23;20165;-66
2022/02/11 03:56:14;;;;;;;0.20;0.07;;;8.00;99.90;;;;;;25669989;23;20197;-67
2022/02/11 05:08:30;;;;;;;0.20;0.00;;;7.10;99.90;;;;;;25710837;23;20262;-66
2022/02/11 05:18:35;;;;;;;0.20;0.00;;;7.20;99.90;;;;;;25715947;23;20193;-66
2022/02/11 05:28:44;;;;;;;0.20;0.10;;;7.00;99.90;;;;;;25715824;23;20185;-66
2022/02/11 05:38:49;;;;;;;0.20;0.10;;;7.10;99.90;;;;;;25687606;23;20165;-74
2022/02/11 05:48:53;;;;;;;0.20;0.10;;;6.80;99.90;;;;;;25715445;23;20235;-76
2022/02/11 05:58:59;;;;;;;0.20;0.10;;;7.00;99.90;;;;;;25714192;23;20521;-75
2022/02/11 06:09:03;;;;;;;0.20;0.10;;;7.80;99.90;;;;;;25712599;23;20562;-75
2022/02/11 06:19:08;;;;;;;0.20;0.10;;;8.20;99.90;;;;;;25710482;23;20213;-75
2022/02/11 06:29:13;;;;;;;0.20;0.10;;;8.10;99.90;;;;;;25683482;23;20662;-74
2022/02/11 06:39:18;;;;;;;0.20;0.10;;;7.70;99.90;;;;;;25710588;23;20178;-75
2022/02/11 06:49:22;;;;;;;0.20;0.03;;;7.50;99.90;;;;;;25708044;23;20230;-75
2022/02/11 06:59:27;;;;;;;0.20;0.00;;;7.60;99.90;;;;;;25656827;23;20190;-74
2022/02/11 07:09:31;;;;;;;0.20;0.10;;;7.90;99.90;;;;;;25700702;23;20190;-64
2022/02/11 07:19:36;;;;;;;0.20;0.10;;;8.10;99.90;;;;;;25706054;23;20169;-66
2022/02/11 07:29:40;;;;;;;0.20;0.10;;;8.40;99.90;;;;;;25679196;23;20245;-65
2022/02/11 07:39:45;;;;;;;0.20;0.10;;;8.70;99.90;;;;;;25704755;23;20176;-66
2022/02/11 07:49:49;;;;;;;0.20;0.10;;;9.30;99.90;;;;;;25705815;23;20185;-66
2022/02/11 07:59:54;;;;;;;0.20;0.10;;;9.90;99.90;;;;;;25705603;23;20186;-65
2022/02/11 08:09:58;;;;;;;0.20;0.10;;;10.60;99.90;;;;;;25704359;23;20208;-63
2022/02/11 08:20:04;;;;;;;0.20;0.10;;;10.90;99.90;;;;;;25703071;23;20174;-75
2022/02/11 08:30:09;;;;;;;0.20;0.20;;;11.10;99.90;;;;;;25703329;23;20193;-78
2022/02/11 08:40:14;;;;;;;0.20;0.10;;;11.20;99.90;;;;;;25705261;23;20170;-75
2022/02/11 08:50:19;;;;;;;0.20;0.10;;;11.40;99.90;;;;;;25703908;23;20169;-75
2022/02/11 09:00:24;;;;;;;0.20;0.10;;;11.70;99.90;;;;;;25677858;23;20255;-76
2022/02/11 09:10:30;;;;;;;0.20;0.10;;;11.90;99.90;;;;;;25676048;23;20193;-76
2022/02/11 09:20:35;;;;;;;0.20;0.10;;;12.40;99.90;;;;;;25703296;23;20166;-74
2022/02/11 09:30:40;;;;;;;0.20;0.10;;;13.00;99.90;;;;;;25677581;23;20185;-65
2022/02/11 09:40:50;;;;;;;0.20;0.10;;;13.60;99.90;;;;;;25675011;23;20185;-66
2022/02/11 09:50:55;;;;;;;0.20;0.10;;;14.10;99.90;;;;;;25676922;23;20437;-65
2022/02/11 10:01:01;;;;;;;0.20;0.10;;;14.10;99.90;;;;;;25710070;23;20197;-66
2022/02/11 10:11:06;;;;;;;0.20;0.17;;;14.10;99.90;;;;;;25707164;23;20200;-68
2022/02/11 10:21:13;;;;;;;0.20;0.10;;;14.40;99.90;;;;;;25707968;23;20186;-66
2022/02/11 10:31:19;;;;;;;0.20;0.00;;;14.60;99.90;;;;;;25709261;23;20725;-66
2022/02/11 10:41:26;;;;;;;0.20;0.10;;;14.90;99.90;;;;;;25656199;23;20193;-66
2022/02/11 10:51:30;;;;;;;0.20;0.10;;;15.30;99.90;;;;;;25709633;23;20176;-64
2022/02/11 12:53:01;;;;;;;0.20;0.10;;;19.50;99.90;;;;;;25686643;23;20205;-67
2022/02/11 13:03:06;;;;;;;5.83;1.90;;;20.10;99.90;;;;;;25553701;23;20201;-66
2022/02/11 13:13:17;;;;;;;0.20;0.20;;;19.70;99.90;;;;;;25580970;23;20165;-64
2022/02/11 13:23:22;;;;;;;0.20;0.00;;;20.30;99.90;;;;;;25579836;23;20192;-64
2022/02/11 13:33:29;;;;;;;1.13;0.77;;;20.70;99.90;;;;;;25578248;23;20170;-67
2022/02/11 13:43:47;;;;;;;0.20;0.00;;;20.90;99.90;;;;;;25583314;23;20182;-65
2022/02/11 13:53:54;;;;;;;0.20;0.10;;;21.10;99.90;;;;;;25595716;23;20234;-66
2022/02/11 14:04:02;;;;;;;0.20;0.10;;;21.20;99.90;;;;;;25711453;23;20192;-65
2022/02/11 14:14:13;;;;;;;0.20;0.10;;;19.10;99.90;;;;;;25682712;23;20170;-65
2022/02/11 14:24:17;;;;;;;0.20;0.10;;;18.10;99.90;;;;;;25709510;23;20485;-65
2022/02/11 14:34:23;;;;;;;0.20;0.10;;;17.60;99.90;;;;;;25706987;23;20166;-65
2022/02/11 14:44:29;;;;;;;0.20;0.10;;;17.10;99.90;;;;;;25699861;23;20217;-66
2022/02/11 14:54:35;;;;;;;0.20;0.00;;;16.70;99.90;;;;;;25707560;23;20232;-66
2022/02/11 15:04:41;;;;;;;0.20;0.10;;;16.50;99.90;;;;;;25679614;23;20209;-66
2022/02/11 15:14:47;;;;;;;0.20;0.10;;;16.60;99.90;;;;;;25705565;23;20170;-66
2022/02/11 15:24:50;;;;;;;0.20;0.10;;;17.80;99.90;;;;;;25678625;23;20682;-67
2022/02/11 15:34:56;;;;;;;0.20;0.00;;;18.80;99.90;;;;;;25678819;23;20181;-67
2022/02/11 15:44:59;;;;;;;0.20;0.13;;;18.60;99.90;;;;;;25705367;23;20193;-68
2022/02/11 15:55:06;;;;;;;0.20;0.10;;;18.00;99.90;;;;;;25705614;23;20281;-71
2022/02/11 16:05:11;;;;;;;0.20;0.10;;;16.80;99.90;;;;;;25705638;23;20281;-68
2022/02/11 16:15:17;;;;;;;0.20;0.10;;;16.20;99.90;;;;;;25676302;23;20247;-69
2022/02/11 16:25:21;;;;;;;0.20;0.10;;;16.60;99.90;;;;;;25699022;23;20181;-69
2022/02/11 16:35:28;;;;;;;0.20;0.10;;;16.70;99.90;;;;;;25676896;23;20174;-73
2022/02/11 16:45:33;;;;;;;0.20;0.00;;;15.70;99.90;;;;;;25704551;23;20493;-75
2022/02/11 16:55:38;;;;;;;0.20;0.10;;;15.50;99.90;;;;;;25703626;23;20562;-69
2022/02/11 17:05:42;;;;;;;0.20;0.03;;;15.10;99.90;;;;;;25704128;23;20197;-68
2022/02/11 17:15:47;;;;;;;0.20;0.00;;;14.80;99.90;;;;;;25697199;23;20189;-67
2022/02/11 17:25:53;;;;;;;0.20;0.03;;;14.30;99.90;;;;;;25696710;23;20631;-67
2022/02/11 17:36:01;;;;;;;0.20;0.00;;;14.00;99.90;;;;;;25642136;23;20173;-67
2022/02/11 17:46:06;;;;;;;0.20;0.10;;;13.70;99.90;;;;;;25696436;23;20197;-67
2022/02/11 17:56:11;;;;;;;0.20;0.10;;;13.30;99.90;;;;;;25696061;23;20299;-66
2022/02/11 18:06:15;;;;;;;0.20;0.10;;;12.60;99.90;;;;;;25697332;23;20200;-67
2022/02/11 18:16:20;;;;;;;0.20;0.10;;;12.30;99.90;;;;;;25699360;23;20184;-67
2022/02/11 18:26:24;;;;;;;0.20;0.10;;;12.10;99.90;;;;;;25702652;23;20200;-69
2022/02/11 18:36:29;;;;;;;0.20;0.10;;;11.80;99.90;;;;;;25704378;23;20177;-69
2022/02/11 18:46:34;;;;;;;0.20;0.10;;;11.70;99.90;;;;;;25674706;23;20197;-66
2022/02/11 18:56:40;;;;;;;0.20;0.00;;;11.30;99.90;;;;;;25674457;23;20631;-68
2022/02/11 19:06:45;;;;;;;0.20;0.00;;;11.20;99.90;;;;;;25702280;23;20193;-67
2022/02/11 19:16:51;;;;;;;0.20;0.10;;;11.00;99.90;;;;;;25701119;23;20249;-67
2022/02/11 19:26:54;;;;;;;0.20;0.10;;;11.00;99.90;;;;;;25703182;23;20950;-67
2022/02/11 19:37:00;;;;;;;1.30;0.97;;;10.90;99.90;;;;;;25702820;23;20166;-67
2022/02/11 19:47:06;;;;;;;0.20;0.10;;;10.70;99.90;;;;;;25677441;23;20602;-67
2022/02/11 19:57:12;;;;;;;0.20;0.10;;;10.60;99.90;;;;;;25702027;23;20698;-68
2022/02/11 20:07:21;;;;;;;0.20;0.10;;;10.40;99.90;;;;;;25704060;23;20189;-67
2022/02/11 20:17:26;;;;;;;0.20;0.10;;;10.40;99.90;;;;;;25701556;23;20169;-69
2022/02/11 20:27:30;;;;;;;1.80;1.70;;;10.40;99.90;;;;;;25702039;23;20193;-71
2022/02/11 20:37:36;;;;;;;0.20;0.10;;;10.10;99.90;;;;;;25673386;23;20599;-71
2022/02/11 20:47:40;;;;;;;0.20;0.10;;;10.20;99.90;;;;;;25703597;23;20528;-73
2022/02/11 20:57:45;;;;;;;0.20;0.10;;;10.30;99.90;;;;;;25673400;23;20205;-65
2022/02/11 21:07:52;;;;;;;0.20;0.10;;;10.30;99.90;;;;;;25675812;23;20185;-66
2022/02/11 21:17:58;;;;;;;0.20;0.00;;;10.00;99.90;;;;;;25643861;23;20507;-65
2022/02/11 21:28:02;;;;;;;0.20;0.00;;;9.80;99.90;;;;;;25456486;23;20384;-65
2022/02/11 21:38:07;;;;;;;0.20;0.10;;;9.80;99.90;;;;;;25458052;23;20177;-64
2022/02/11 21:48:11;;;;;;;0.20;0.10;;;9.80;99.90;;;;;;25460313;23;20193;-66
2022/02/11 21:58:16;;;;;;;0.20;0.07;;;9.70;99.90;;;;;;25528053;23;20544;-64
2022/02/11 22:08:20;;;;;;;0.20;0.13;;;9.90;99.90;;;;;;25588227;23;21020;-65
2022/02/11 22:18:25;;;;;;;0.20;0.10;;;10.00;99.90;;;;;;25589024;23;20190;-64
2022/02/11 22:28:29;;;;;;;0.20;0.10;;;10.00;99.90;;;;;;25560386;23;20520;-63
2022/02/11 22:38:35;;;;;;;0.20;0.00;;;9.90;99.90;;;;;;25584276;23;20158;-63
2022/02/11 22:48:39;;;;;;;0.20;0.10;;;9.70;99.90;;;;;;25316797;23;20212;-72
2022/02/11 22:59:04;;;;;;;0.20;0.00;;;9.70;99.90;;;;;;25328502;23;20172;-72
2022/02/11 23:09:23;;;;;;;0.20;0.00;;;9.70;99.90;;;;;;25329445;23;20180;-72
2022/02/11 23:19:28;;;;;;;0.20;0.10;;;9.90;99.90;;;;;;25327001;23;20156;-72
2022/02/11 23:29:34;;;;;;;0.20;0.00;;;9.80;99.90;;;;;;25326141;23;20184;-71
2022/02/11 23:39:39;;;;;;;0.20;0.10;;;9.70;99.90;;;;;;25325938;23;20766;-72
2022/02/11 23:49:43;;;;;;;0.20;0.10;;;9.50;99.90;;;;;;25325640;23;20195;-72
2022/02/11 23:59:48;;;;;;;0.20;0.10;;;9.80;99.90;;;;;;25299571;23;20176;-71
